Time;durP1;ratioP1;P1;durP2;ratioP2;P2;SDS_P1;SDS_P2;PMS_P1;PMS_P2;Temp;Humidity;BMP_temperature;BMP_pressure;BME280_temperature;BME280_humidity;BME280_pressure;Samples;Min_cycle;Max_cycle;Signal;HPM_P1;HPM_P2
2023/10/06 00:18:16;;;;;;;4.88;2.42;;;19.70;99.90;;;;;;4548386;19;20227;31
2023/10/06 00:19:56;;;;;;;4.93;2.38;;;19.70;99.90;;;;;;4591759;19;20024;-70
2023/10/06 00:21:32;;;;;;;5.38;2.55;;;19.70;99.90;;;;;;4592996;19;20011;-70
2023/10/06 00:23:12;;;;;;;4.55;2.70;;;19.70;99.90;;;;;;4593069;19;19999;-69
2023/10/06 00:24:50;;;;;;;6.40;2.22;;;19.70;99.90;;;;;;4591399;19;20010;-69
2023/10/06 00:26:26;;;;;;;5.13;2.55;;;19.70;99.90;;;;;;4592412;19;20467;-70
2023/10/06 00:28:00;;;;;;;5.93;3.20;;;19.70;99.90;;;;;;4593117;19;20003;-69
2023/10/06 00:29:36;;;;;;;6.00;2.50;;;19.70;99.90;;;;;;4591888;19;20073;-69
2023/10/06 00:31:13;;;;;;;10.70;3.95;;;19.70;99.90;;;;;;4592704;19;20005;-70
2023/10/06 00:32:48;;;;;;;6.40;3.25;;;19.70;99.90;;;;;;4591632;19;19998;-69
2023/10/06 00:34:27;;;;;;;5.90;3.15;;;19.70;99.90;;;;;;4592660;19;20013;-70
2023/10/06 00:36:17;;;;;;;9.88;4.10;;;19.70;99.90;;;;;;4591595;19;20429;-69
2023/10/06 00:37:51;;;;;;;7.43;2.78;;;19.70;99.90;;;;;;4591786;19;20314;-69
2023/10/06 00:39:30;;;;;;;6.45;3.17;;;19.70;99.90;;;;;;4590790;19;20062;-70
2023/10/06 00:41:14;;;;;;;6.63;2.72;;;19.70;99.90;;;;;;4592527;19;20006;-70
2023/10/06 00:43:00;;;;;;;5.05;2.17;;;19.70;99.90;;;;;;4593067;19;20006;-70
2023/10/06 00:44:35;;;;;;;10.23;4.50;;;19.70;99.90;;;;;;4592748;19;20010;-70
2023/10/06 00:46:09;;;;;;;7.70;2.90;;;19.70;99.90;;;;;;4592733;19;20022;-69
2023/10/06 00:47:43;;;;;;;7.07;2.53;;;19.70;99.90;;;;;;4592635;19;19994;-69
2023/10/06 00:49:23;;;;;;;5.85;2.58;;;19.70;99.90;;;;;;4591651;19;20021;-69
2023/10/06 00:50:57;;;;;;;8.88;3.88;;;19.70;99.90;;;;;;4592266;19;20010;-69
2023/10/06 00:52:33;;;;;;;5.47;2.58;;;19.70;99.90;;;;;;4592784;19;20003;-70
2023/10/06 00:54:09;;;;;;;6.00;2.30;;;19.70;99.90;;;;;;4592583;19;20007;-69
2023/10/06 00:55:44;;;;;;;5.60;2.67;;;19.70;99.90;;;;;;4592770;19;20422;-70
2023/10/06 00:57:19;;;;;;;6.18;2.33;;;19.70;99.90;;;;;;4592735;19;20002;-70
2023/10/06 00:58:55;;;;;;;5.63;2.10;;;19.70;99.90;;;;;;4592121;19;20476;-69
2023/10/06 01:00:31;;;;;;;5.70;2.72;;;19.70;99.90;;;;;;4591296;19;20005;-69
2023/10/06 01:02:11;;;;;;;5.72;2.95;;;19.70;99.90;;;;;;4592087;19;20024;-69
2023/10/06 01:04:00;;;;;;;7.22;2.45;;;19.70;99.90;;;;;;4592496;19;20036;-70
2023/10/06 01:05:36;;;;;;;7.72;2.97;;;19.70;99.90;;;;;;4590913;19;20511;-69
2023/10/06 01:07:16;;;;;;;5.85;2.25;;;19.70;99.90;;;;;;4591755;19;20007;-69
2023/10/06 01:09:05;;;;;;;6.50;3.03;;;19.70;99.90;;;;;;4591986;19;20014;-70
2023/10/06 01:10:43;;;;;;;4.50;2.35;;;19.70;99.90;;;;;;4591051;19;20003;-69
2023/10/06 01:12:19;;;;;;;5.68;2.35;;;19.70;99.90;;;;;;4592070;19;20003;-69
2023/10/06 01:13:57;;;;;;;6.90;2.40;;;19.70;99.90;;;;;;4591199;19;20379;-69
2023/10/06 01:15:31;;;;;;;4.90;2.55;;;19.60;99.90;;;;;;4591821;19;20002;-69
2023/10/06 01:18:52;;;;;;;8.32;2.78;;;19.60;99.90;;;;;;4591313;19;20376;-69
2023/10/06 01:20:40;;;;;;;6.63;2.63;;;19.60;99.90;;;;;;4590799;19;20007;-69
2023/10/06 01:22:28;;;;;;;6.90;2.90;;;19.60;99.90;;;;;;4592147;19;20006;-70
2023/10/06 01:24:12;;;;;;;5.07;3.17;;;19.60;99.90;;;;;;4590698;19;20458;-69
2023/10/06 01:25:46;;;;;;;6.28;2.90;;;19.60;99.90;;;;;;4592165;19;20006;-69
2023/10/06 01:27:21;;;;;;;8.25;3.40;;;19.60;99.90;;;;;;4591923;19;20003;-69
2023/10/06 01:28:57;;;;;;;10.02;4.50;;;19.60;99.90;;;;;;4591248;19;20018;-69
2023/10/06 01:30:31;;;;;;;7.38;3.78;;;19.60;99.90;;;;;;4592120;19;20002;-70
2023/10/06 01:32:11;;;;;;;6.25;3.30;;;19.60;99.90;;;;;;4591005;19;20030;-70
2023/10/06 01:33:47;;;;;;;7.68;3.45;;;19.60;99.90;;;;;;4592128;19;20074;-70
2023/10/06 01:35:23;;;;;;;7.57;3.42;;;19.60;99.90;;;;;;4591793;19;20010;-70
2023/10/06 01:37:03;;;;;;;8.65;3.65;;;19.60;99.90;;;;;;4591764;19;20023;-70
2023/10/06 01:38:39;;;;;;;;;;;19.60;99.90;;;;;;4590811;19;20049;-69
2023/10/06 01:42:16;;;;;;;10.50;4.68;;;19.60;99.90;;;;;;4592009;19;20330;-69
2023/10/06 01:43:51;;;;;;;11.07;4.00;;;19.60;99.90;;;;;;4591768;19;20007;-69
2023/10/06 01:45:28;;;;;;;10.25;4.75;;;19.60;99.90;;;;;;4591906;19;19995;-69
2023/10/06 01:47:07;;;;;;;7.47;3.47;;;19.60;99.90;;;;;;4591599;19;20025;-69
2023/10/06 01:48:42;;;;;;;8.02;3.20;;;19.60;99.90;;;;;;4591033;19;20033;-70
2023/10/06 01:50:17;;;;;;;7.15;3.53;;;19.60;99.90;;;;;;4591821;19;20491;-70
2023/10/06 01:51:51;;;;;;;6.35;3.00;;;19.60;99.90;;;;;;4590427;19;20011;-69
2023/10/06 01:53:32;;;;;;;6.43;2.88;;;19.60;99.90;;;;;;4591612;19;20007;-69
2023/10/06 01:55:12;;;;;;;6.78;3.25;;;19.60;99.90;;;;;;4591637;19;20002;-69
2023/10/06 01:56:53;;;;;;;6.80;3.70;;;19.60;99.90;;;;;;4591597;19;20010;-69
2023/10/06 01:58:32;;;;;;;5.03;2.88;;;19.60;99.90;;;;;;4589976;19;20380;-69
2023/10/06 02:00:15;;;;;;;6.25;3.53;;;19.60;99.90;;;;;;4591335;19;20026;-69
2023/10/06 02:01:51;;;;;;;5.65;2.85;;;19.60;99.90;;;;;;4590403;19;20014;-70
2023/10/06 02:03:27;;;;;;;7.28;2.97;;;19.60;99.90;;;;;;4591158;19;20002;-69
2023/10/06 02:05:01;;;;;;;6.38;2.80;;;19.60;99.90;;;;;;4591244;19;20066;-69
2023/10/06 02:06:37;;;;;;;5.60;2.90;;;19.60;99.90;;;;;;4591391;19;19999;-70
2023/10/06 02:08:22;;;;;;;5.63;2.92;;;19.60;99.90;;;;;;4591220;19;20066;-69
2023/10/06 02:09:57;;;;;;;5.72;2.50;;;19.60;99.90;;;;;;4591239;19;20106;-69
2023/10/06 02:11:34;;;;;;;5.65;3.47;;;19.60;99.90;;;;;;4590541;19;20006;-69
2023/10/06 02:13:11;;;;;;;8.43;3.08;;;19.50;99.90;;;;;;4591324;19;20011;-69
2023/10/06 02:14:47;;;;;;;7.38;3.22;;;19.60;99.90;;;;;;4591201;19;20002;-69
2023/10/06 02:16:26;;;;;;;7.07;3.00;;;19.60;99.90;;;;;;4591508;19;20007;-69
2023/10/06 02:18:01;;;;;;;5.35;3.53;;;19.60;99.90;;;;;;4590432;19;20023;-70
2023/10/06 02:19:37;;;;;;;5.57;2.88;;;19.60;99.90;;;;;;4593369;19;20360;-69
2023/10/06 02:21:11;;;;;;;7.80;3.10;;;19.60;99.90;;;;;;4595922;19;20022;-69
2023/10/06 02:22:48;;;;;;;6.93;3.05;;;19.60;99.90;;;;;;4594588;19;20006;-70
2023/10/06 02:24:24;;;;;;;6.82;3.72;;;19.60;99.90;;;;;;4595531;19;20013;-70
2023/10/06 02:25:59;;;;;;;8.93;4.43;;;19.50;99.90;;;;;;4595545;19;19998;-69
2023/10/06 02:27:43;;;;;;;7.82;3.97;;;19.50;99.90;;;;;;4595854;19;20344;-69
2023/10/06 02:29:23;;;;;;;7.20;3.40;;;19.60;99.90;;;;;;4594200;19;20066;-69
2023/10/06 02:31:03;;;;;;;6.18;3.80;;;19.50;99.90;;;;;;4595266;19;20002;-69
2023/10/06 02:32:40;;;;;;;5.63;3.55;;;19.50;99.90;;;;;;4594098;19;20441;-69
2023/10/06 02:36:25;;;;;;;6.10;3.40;;;19.50;99.90;;;;;;4593046;19;20025;-69
2023/10/06 02:38:05;;;;;;;;;;;19.50;99.90;;;;;;4594306;19;20010;-70
2023/10/06 02:39:43;;;;;;;5.38;3.25;;;19.50;99.90;;;;;;4593089;19;20215;-69
2023/10/06 02:41:29;;;;;;;5.82;3.65;;;19.50;99.90;;;;;;4593003;19;20082;-70
2023/10/06 02:43:09;;;;;;;7.07;3.30;;;19.50;99.90;;;;;;4593323;19;20006;-69
2023/10/06 02:44:45;;;;;;;5.57;3.05;;;19.50;99.90;;;;;;4593058;19;20480;-70
2023/10/06 02:46:29;;;;;;;5.90;3.38;;;19.50;99.90;;;;;;4593007;19;20009;-70
2023/10/06 02:48:14;;;;;;;6.50;4.90;;;19.50;99.90;;;;;;4593111;19;20430;-70
2023/10/06 02:49:48;;;;;;;9.05;5.40;;;19.50;99.90;;;;;;4592931;19;20452;-70
2023/10/06 02:51:32;;;;;;;9.30;5.93;;;19.50;99.90;;;;;;4592115;19;20291;-70
2023/10/06 02:53:13;;;;;;;6.55;4.70;;;19.50;99.90;;;;;;4592812;19;20002;-70
2023/10/06 02:55:07;;;;;;;8.90;5.90;;;19.50;99.90;;;;;;4593085;19;20066;-70
2023/10/06 02:56:47;;;;;;;19.83;8.82;;;19.50;99.90;;;;;;4593079;19;20021;-70
2023/10/06 02:58:30;;;;;;;12.75;7.85;;;19.50;99.90;;;;;;4592398;19;20002;-69
2023/10/06 03:02:00;;;;;;;11.98;7.15;;;19.50;99.90;;;;;;4592949;19;20007;-69
2023/10/06 03:03:35;;;;;;;15.30;7.80;;;19.50;99.90;;;;;;4592641;19;20100;-70
2023/10/06 03:05:12;;;;;;;13.52;8.13;;;19.50;99.90;;;;;;4592588;19;19999;-69
2023/10/06 03:06:58;;;;;;;10.48;6.05;;;19.60;99.90;;;;;;4592808;19;20007;-69
2023/10/06 03:08:35;;;;;;;8.15;4.95;;;19.50;99.90;;;;;;4592222;19;20066;-70
2023/10/06 03:10:11;;;;;;;9.23;5.78;;;19.50;99.90;;;;;;4592795;19;20492;-69
2023/10/06 03:11:49;;;;;;;10.35;6.43;;;19.50;99.90;;;;;;4591747;19;20378;-70
2023/10/06 03:13:43;;;;;;;9.65;6.25;;;19.50;99.90;;;;;;4594145;19;20011;-70
2023/10/06 03:15:35;;;;;;;8.43;5.55;;;19.60;99.90;;;;;;4594853;19;20006;-70
2023/10/06 03:17:10;;;;;;;9.40;6.00;;;19.60;99.90;;;;;;4594581;19;20006;-69
2023/10/06 03:18:45;;;;;;;8.45;6.00;;;19.60;99.90;;;;;;4592113;19;20010;-69
2023/10/06 03:20:22;;;;;;;7.82;5.70;;;19.60;99.90;;;;;;4594103;19;20007;-69
2023/10/06 03:22:00;;;;;;;11.70;6.97;;;19.50;99.90;;;;;;4593153;19;20010;-69
2023/10/06 03:23:38;;;;;;;10.02;6.68;;;19.60;99.90;;;;;;4593338;19;20006;-70
2023/10/06 03:25:17;;;;;;;7.65;5.80;;;19.50;99.90;;;;;;4594003;19;20003;-69
2023/10/06 03:26:52;;;;;;;7.90;5.85;;;19.60;99.90;;;;;;4594579;19;20308;-69
2023/10/06 03:28:50;;;;;;;7.88;5.65;;;19.60;99.90;;;;;;4593822;19;20003;-69
2023/10/06 03:30:34;;;;;;;6.70;5.82;;;19.60;99.90;;;;;;4591251;19;20438;-69
2023/10/06 03:32:12;;;;;;;7.82;6.65;;;19.60;99.90;;;;;;4593161;19;20007;-69
2023/10/06 03:33:48;;;;;;;7.65;5.78;;;19.60;99.90;;;;;;4593068;19;20013;-70
2023/10/06 03:35:35;;;;;;;7.60;6.38;;;19.60;99.90;;;;;;4593747;19;20002;-70
2023/10/06 03:37:10;;;;;;;9.20;6.10;;;19.60;99.90;;;;;;4594373;19;20069;-70
2023/10/06 03:39:06;;;;;;;8.38;6.75;;;19.60;99.90;;;;;;4593457;19;20006;-69
2023/10/06 03:42:27;;;;;;;8.60;6.22;;;19.50;99.90;;;;;;4592949;19;20006;-69
2023/10/06 03:44:09;;;;;;;7.70;6.38;;;19.60;99.90;;;;;;4594052;19;20006;-70
2023/10/06 03:45:47;;;;;;;10.20;6.35;;;19.60;99.90;;;;;;4594238;19;20010;-70
2023/10/06 03:47:21;;;;;;;7.78;6.47;;;19.60;99.90;;;;;;4593809;19;20013;-70
2023/10/06 03:48:57;;;;;;;8.98;7.40;;;19.70;99.90;;;;;;4592901;19;20007;-70
2023/10/06 03:50:30;;;;;;;11.23;7.82;;;19.80;99.90;;;;;;4594068;19;20003;-70
2023/10/06 03:52:09;;;;;;;10.07;7.80;;;19.80;99.90;;;;;;4592651;19;19998;-70
2023/10/06 03:53:50;;;;;;;9.45;7.72;;;19.90;99.90;;;;;;4592353;19;20017;-70
2023/10/06 03:55:24;;;;;;;10.52;7.97;;;20.00;99.90;;;;;;4593736;19;20006;-70
2023/10/06 03:56:58;;;;;;;8.43;7.05;;;20.00;99.90;;;;;;4593694;19;19999;-70
2023/10/06 03:58:33;;;;;;;8.95;7.28;;;20.10;99.90;;;;;;4591857;19;20026;-70
2023/10/06 04:00:08;;;;;;;17.52;6.85;;;20.20;99.90;;;;;;4593489;19;20430;-70
2023/10/06 04:01:44;;;;;;;7.60;6.47;;;20.20;99.90;;;;;;4592212;19;20308;-70
2023/10/06 04:03:21;;;;;;;9.63;6.28;;;20.30;99.90;;;;;;4592299;19;20006;-70
2023/10/06 04:04:57;;;;;;;71.28;9.68;;;20.30;99.90;;;;;;4593447;19;20332;-72
2023/10/06 04:06:38;;;;;;;8.23;6.97;;;20.40;99.90;;;;;;4593398;19;20015;-70
2023/10/06 04:08:22;;;;;;;8.93;6.85;;;20.40;99.90;;;;;;4592077;19;20003;-70
2023/10/06 04:09:56;;;;;;;8.73;7.68;;;20.40;99.90;;;;;;4592138;19;20005;-72
2023/10/06 04:11:31;;;;;;;10.13;7.43;;;20.40;99.90;;;;;;4592439;19;20062;-70
2023/10/06 04:13:12;;;;;;;7.72;6.78;;;20.40;99.90;;;;;;4593401;19;20006;-70
2023/10/06 04:14:47;;;;;;;8.65;6.93;;;20.40;99.90;;;;;;4593532;19;20425;-71
2023/10/06 04:16:23;;;;;;;11.18;7.00;;;20.40;99.90;;;;;;4593423;19;20073;-71
2023/10/06 04:17:58;;;;;;;13.52;6.65;;;20.40;99.90;;;;;;4593534;19;20287;-70
2023/10/06 04:19:34;;;;;;;8.55;5.78;;;20.40;99.90;;;;;;4591843;19;20464;-70
2023/10/06 04:21:12;;;;;;;8.40;6.65;;;20.50;99.90;;;;;;4593294;19;20074;-71
2023/10/06 04:22:47;;;;;;;8.73;7.25;;;20.50;99.90;;;;;;4593188;19;20007;-71
2023/10/06 04:24:21;;;;;;;9.90;7.82;;;20.50;99.90;;;;;;4593087;19;20003;-71
2023/10/06 04:25:55;;;;;;;7.93;7.07;;;20.50;99.90;;;;;;4593362;19;20487;-71
2023/10/06 04:27:32;;;;;;;11.23;7.60;;;20.40;99.90;;;;;;4593105;19;20007;-70
2023/10/06 04:29:08;;;;;;;8.98;7.57;;;20.40;99.90;;;;;;4592467;19;20010;-70
2023/10/06 04:30:47;;;;;;;9.52;7.40;;;20.40;99.90;;;;;;4593207;19;20010;-70
2023/10/06 04:32:22;;;;;;;9.10;7.65;;;20.40;99.90;;;;;;4591951;19;20012;-71
2023/10/06 04:33:55;;;;;;;11.07;7.60;;;20.40;99.90;;;;;;4592565;19;20035;-70
2023/10/06 04:35:32;;;;;;;12.60;7.82;;;20.50;99.90;;;;;;4593179;19;19999;-70
2023/10/06 04:37:07;;;;;;;11.27;6.78;;;20.50;99.90;;;;;;4591848;19;20302;-70
2023/10/06 04:38:41;;;;;;;8.40;6.93;;;20.50;99.90;;;;;;4592198;19;20006;-71
2023/10/06 04:40:20;;;;;;;8.45;6.65;;;20.60;99.90;;;;;;4592653;19;20073;-70
2023/10/06 04:42:00;;;;;;;11.43;7.13;;;20.60;99.90;;;;;;4591653;19;20350;-70
2023/10/06 04:43:34;;;;;;;9.23;6.85;;;20.60;99.90;;;;;;4592982;19;20013;-70
2023/10/06 04:45:12;;;;;;;9.07;6.30;;;20.70;99.90;;;;;;4592619;19;20010;-71
2023/10/06 04:46:50;;;;;;;8.52;6.55;;;20.70;99.90;;;;;;4591312;19;20010;-71
2023/10/06 04:48:25;;;;;;;10.18;7.25;;;20.80;99.90;;;;;;4592075;19;20086;-71
2023/10/06 04:49:59;;;;;;;11.52;7.00;;;20.90;99.90;;;;;;4592534;19;20433;-70
2023/10/06 04:51:35;;;;;;;7.38;6.47;;;20.90;99.90;;;;;;4591979;19;20013;-70
2023/10/06 04:53:11;;;;;;;10.27;6.93;;;21.00;99.90;;;;;;4592406;19;20342;-71
2023/10/06 04:54:47;;;;;;;9.13;7.15;;;21.00;99.90;;;;;;4592762;19;20003;-70
2023/10/06 04:56:23;;;;;;;8.30;6.63;;;21.10;99.90;;;;;;4592544;19;20098;-70
2023/10/06 04:57:57;;;;;;;8.90;7.10;;;21.10;99.90;;;;;;4592695;19;20428;-71
2023/10/06 04:59:32;;;;;;;11.82;7.45;;;21.10;99.90;;;;;;4591319;19;20097;-71
2023/10/06 05:01:08;;;;;;;9.90;7.05;;;21.20;99.90;;;;;;4592458;19;20007;-71
2023/10/06 05:02:43;;;;;;;10.88;6.80;;;21.20;99.90;;;;;;4592374;19;20072;-71
2023/10/06 05:04:17;;;;;;;9.43;7.18;;;21.20;99.90;;;;;;4592332;19;20429;-70
2023/10/06 05:05:56;;;;;;;8.70;6.38;;;21.20;99.90;;;;;;4593017;19;20002;-70
2023/10/06 05:07:30;;;;;;;8.02;6.20;;;21.30;99.90;;;;;;4591246;19;20006;-71
2023/10/06 05:09:06;;;;;;;8.18;6.82;;;21.30;99.90;;;;;;4591130;19;20010;-70
2023/10/06 05:10:41;;;;;;;8.95;7.28;;;21.30;99.90;;;;;;4592253;19;20081;-71
2023/10/06 05:12:15;;;;;;;9.77;7.55;;;21.30;99.90;;;;;;4591368;19;20009;-71
2023/10/06 05:13:53;;;;;;;8.90;6.65;;;21.30;99.90;;;;;;4592189;19;20127;-71
2023/10/06 05:15:32;;;;;;;7.90;6.60;;;21.30;99.90;;;;;;4592458;19;20007;-70
2023/10/06 05:17:07;;;;;;;9.02;6.70;;;21.30;99.90;;;;;;4590698;19;20014;-70
2023/10/06 05:18:41;;;;;;;8.73;7.18;;;21.30;99.90;;;;;;4590881;19;20020;-70
2023/10/06 05:20:20;;;;;;;10.00;8.93;;;21.30;99.90;;;;;;4592326;19;20430;-71
2023/10/06 05:21:54;;;;;;;11.38;10.27;;;20.90;99.90;;;;;;4592149;19;20001;-71
2023/10/06 05:23:29;;;;;;;12.55;11.25;;;18.50;99.90;;;;;;4591813;19;19998;-70
2023/10/06 05:25:04;;;;;;;12.43;11.07;;;17.40;99.90;;;;;;4592160;19;20010;-70
2023/10/06 05:26:38;;;;;;;12.63;11.30;;;16.70;99.90;;;;;;4592005;19;20098;-70
2023/10/06 05:28:12;;;;;;;14.55;13.02;;;16.40;99.90;;;;;;4591701;19;19994;-70
2023/10/06 05:29:47;;;;;;;13.73;12.10;;;16.20;99.90;;;;;;4590875;19;20366;-70
2023/10/06 05:31:22;;;;;;;13.02;11.60;;;16.10;99.90;;;;;;4590954;19;20006;-70
2023/10/06 05:32:59;;;;;;;12.95;11.65;;;16.00;99.90;;;;;;4591306;19;20011;-70
2023/10/06 05:35:00;;;;;;;12.10;10.88;;;15.90;99.90;;;;;;4590910;19;20034;-70
2023/10/06 05:36:36;;;;;;;10.95;9.82;;;15.80;99.90;;;;;;4590756;19;20007;-70
2023/10/06 05:38:16;;;;;;;11.10;9.77;;;16.20;99.90;;;;;;4591024;19;20082;-70
2023/10/06 05:39:51;;;;;;;12.23;9.93;;;16.90;99.90;;;;;;4591369;19;19998;-70
2023/10/06 05:41:32;;;;;;;12.73;10.43;;;17.60;99.90;;;;;;4591244;19;20015;-70
2023/10/06 05:43:16;;;;;;;12.75;10.40;;;18.10;99.90;;;;;;4590531;19;20473;-70
2023/10/06 05:44:51;;;;;;;14.05;10.77;;;18.40;99.90;;;;;;4590515;19;20007;-71
2023/10/06 05:46:25;;;;;;;13.65;11.10;;;18.70;99.90;;;;;;4591311;19;20026;-70
2023/10/06 05:48:06;;;;;;;18.30;11.77;;;18.90;99.90;;;;;;4591511;19;20084;-70
2023/10/06 05:49:47;;;;;;;14.32;10.40;;;19.10;99.90;;;;;;4591869;19;20014;-70
2023/10/06 05:51:22;;;;;;;15.07;11.40;;;19.30;99.90;;;;;;4591362;19;20006;-70
2023/10/06 05:53:04;;;;;;;14.98;10.25;;;19.40;99.90;;;;;;4591985;19;20022;-70
2023/10/06 05:54:39;;;;;;;11.67;9.97;;;19.40;99.90;;;;;;4594811;19;20007;-70
2023/10/06 05:56:12;;;;;;;15.80;10.32;;;19.50;99.90;;;;;;4596103;19;20412;-70
2023/10/06 05:57:55;;;;;;;16.25;10.43;;;19.60;99.90;;;;;;4596201;19;20021;-70
2023/10/06 06:11:12;;;;;;;12.23;10.13;;;19.80;99.90;;;;;;4592696;19;19998;-71
2023/10/06 06:13:26;;;;;;;9.95;8.40;;;19.80;99.90;;;;;;4595868;19;20284;-69
2023/10/06 06:15:31;;;;;;;12.80;8.70;;;19.80;99.90;;;;;;4594346;19;20006;-69
2023/10/06 06:17:21;;;;;;;10.88;8.73;;;19.90;99.90;;;;;;4593578;19;20484;-69
2023/10/06 06:19:01;;;;;;;12.75;9.00;;;19.90;99.90;;;;;;4594393;19;20091;-70
2023/10/06 06:20:41;;;;;;;12.60;9.10;;;19.80;99.90;;;;;;4595652;19;20013;-70
2023/10/06 06:22:16;;;;;;;11.30;9.25;;;19.90;99.90;;;;;;4595691;19;20006;-70
2023/10/06 06:24:08;;;;;;;10.80;9.20;;;19.90;99.90;;;;;;4595651;19;20011;-69
2023/10/06 06:25:58;;;;;;;12.57;10.40;;;19.90;99.90;;;;;;4595674;19;20298;-69
2023/10/06 06:27:33;;;;;;;14.90;10.57;;;19.90;99.90;;;;;;4595652;19;20002;-69
2023/10/06 06:29:11;;;;;;;14.68;10.65;;;19.90;99.90;;;;;;4594288;19;20014;-69
2023/10/06 06:30:50;;;;;;;14.02;10.85;;;19.90;99.90;;;;;;4595820;19;20006;-69
2023/10/06 06:32:25;;;;;;;12.70;10.40;;;19.90;99.90;;;;;;4593734;19;20010;-70
2023/10/06 06:34:06;;;;;;;14.02;11.25;;;19.90;99.90;;;;;;4594078;19;20033;-69
2023/10/06 06:35:42;;;;;;;13.88;11.00;;;19.90;99.90;;;;;;4593968;19;20039;-69
2023/10/06 06:37:16;;;;;;;14.60;11.23;;;19.90;99.90;;;;;;4593954;19;20013;-71
2023/10/06 06:39:09;;;;;;;11.90;10.52;;;19.90;99.90;;;;;;4593876;19;20385;-73
2023/10/06 06:41:05;;;;;;;15.00;11.30;;;19.90;99.90;;;;;;4594238;19;20010;-82
2023/10/06 06:43:10;;;;;;;12.30;10.80;;;19.90;99.90;;;;;;4591988;19;20363;-72
2023/10/06 06:45:06;;;;;;;;;;;19.90;99.90;;;;;;4592823;19;20019;-72
2023/10/06 06:47:00;;;;;;;11.23;9.82;;;20.00;99.90;;;;;;4593305;19;19910;-72
2023/10/06 06:48:38;;;;;;;12.60;10.90;;;20.00;99.90;;;;;;4594612;19;20099;-72
2023/10/06 06:50:18;;;;;;;13.68;10.60;;;20.00;99.90;;;;;;4593934;19;20010;-73
2023/10/06 06:51:53;;;;;;;13.27;9.90;;;20.00;99.90;;;;;;4592653;19;20366;-71
2023/10/06 06:53:28;;;;;;;14.57;10.32;;;20.10;99.90;;;;;;4594593;19;20017;-71
2023/10/06 06:55:02;;;;;;;13.50;10.40;;;20.10;99.90;;;;;;4594517;19;20442;-69
2023/10/06 06:56:35;;;;;;;13.77;9.63;;;20.10;99.90;;;;;;4594762;19;20027;-71
2023/10/06 06:58:11;;;;;;;13.95;10.32;;;20.20;99.90;;;;;;4594650;19;20025;-71
2023/10/06 06:59:45;;;;;;;13.48;10.85;;;20.20;99.90;;;;;;4595022;19;19999;-71
2023/10/06 07:01:19;;;;;;;13.60;10.88;;;20.20;99.90;;;;;;4594666;19;20445;-71
2023/10/06 07:03:04;;;;;;;14.20;10.18;;;20.20;99.90;;;;;;4593441;19;20074;-72
2023/10/06 07:04:49;;;;;;;15.15;11.10;;;20.20;99.90;;;;;;4593779;19;20440;-71
2023/10/06 07:06:25;;;;;;;14.77;10.27;;;20.20;99.90;;;;;;4594671;19;20002;-71
2023/10/06 07:08:01;;;;;;;14.18;11.27;;;20.20;99.90;;;;;;4593583;19;20062;-71
2023/10/06 07:09:35;;;;;;;13.65;11.45;;;20.20;99.90;;;;;;4594260;19;20094;-71
2023/10/06 07:11:10;;;;;;;13.40;10.45;;;20.20;99.90;;;;;;4594271;19;20007;-71
2023/10/06 07:12:45;;;;;;;15.38;11.27;;;20.20;99.90;;;;;;4593487;19;20070;-71
2023/10/06 07:14:19;;;;;;;16.92;11.57;;;20.20;99.90;;;;;;4594444;19;20012;-71
2023/10/06 07:15:55;;;;;;;15.55;10.82;;;20.20;99.90;;;;;;4594705;19;20013;-71
2023/10/06 07:17:32;;;;;;;16.73;12.77;;;20.20;99.90;;;;;;4594797;19;20013;-71
2023/10/06 07:19:18;;;;;;;21.02;11.60;;;20.20;99.90;;;;;;4591790;19;20058;-71
2023/10/06 07:21:22;;;;;;;17.08;12.25;;;20.10;99.90;;;;;;4592626;19;20015;-71
2023/10/06 07:23:27;;;;;;;14.80;10.80;;;20.10;99.90;;;;;;4593017;19;20031;-71
2023/10/06 07:25:24;;;;;;;13.88;10.98;;;20.10;99.90;;;;;;4592979;19;20029;-71
2023/10/06 07:27:16;;;;;;;14.65;10.95;;;20.10;99.90;;;;;;4593029;19;20014;-71
2023/10/06 07:29:14;;;;;;;16.33;11.50;;;20.10;99.90;;;;;;4591162;19;20015;-71
2023/10/06 07:31:21;;;;;;;17.33;12.95;;;20.10;99.90;;;;;;4592986;19;20013;-71
2023/10/06 07:33:16;;;;;;;14.95;11.55;;;20.10;99.90;;;;;;4594042;19;20002;-71
2023/10/06 07:35:20;;;;;;;13.18;10.30;;;20.00;99.90;;;;;;4592688;19;20341;-71
2023/10/06 07:37:12;;;;;;;13.75;10.73;;;20.00;99.90;;;;;;4592575;19;20010;-71
2023/10/06 07:39:20;;;;;;;13.40;11.05;;;20.00;99.90;;;;;;4590880;19;20015;-71
2023/10/06 07:41:29;;;;;;;13.90;11.38;;;20.00;99.90;;;;;;4592954;19;20006;-71
2023/10/06 07:43:23;;;;;;;19.75;12.82;;;20.00;99.90;;;;;;4594221;19;20006;-71
2023/10/06 07:45:23;;;;;;;16.45;12.40;;;20.00;99.90;;;;;;4591000;19;20018;-71
2023/10/06 07:47:27;;;;;;;16.58;12.10;;;20.00;99.90;;;;;;4592595;19;20007;-70
2023/10/06 07:49:30;;;;;;;13.55;12.15;;;20.00;99.90;;;;;;4591134;19;20006;-71
2023/10/06 07:51:37;;;;;;;18.40;14.23;;;20.00;99.90;;;;;;4592081;19;20047;-73
2023/10/06 07:53:40;;;;;;;14.70;11.38;;;20.00;99.90;;;;;;4590827;19;20055;-71
2023/10/06 07:55:44;;;;;;;14.52;10.82;;;20.00;99.90;;;;;;4592100;19;20011;-71
2023/10/06 07:57:41;;;;;;;16.42;11.05;;;20.00;99.90;;;;;;4592013;19;20021;-72
2023/10/06 07:59:32;;;;;;;13.32;10.52;;;20.00;99.90;;;;;;4592064;19;20010;-71
2023/10/06 08:01:35;;;;;;;14.20;10.73;;;20.00;99.90;;;;;;4591086;19;20342;-71
2023/10/06 08:03:39;;;;;;;13.15;10.52;;;20.00;99.90;;;;;;4591985;19;20417;-71
2023/10/06 08:05:32;;;;;;;13.52;10.68;;;20.00;99.90;;;;;;4592110;19;20014;-71
2023/10/06 08:07:29;;;;;;;14.45;11.20;;;19.90;99.90;;;;;;4590679;19;20011;-71
2023/10/06 08:09:27;;;;;;;15.00;11.65;;;19.90;99.90;;;;;;4591805;19;20025;-71
2023/10/06 08:11:27;;;;;;;14.05;10.18;;;20.00;99.90;;;;;;4591828;19;20086;-71
2023/10/06 08:13:28;;;;;;;15.13;9.95;;;19.80;99.90;;;;;;4591759;19;20110;-70
2023/10/06 08:15:22;;;;;;;15.88;10.75;;;19.80;99.90;;;;;;4591768;19;20326;-71
2023/10/06 08:17:21;;;;;;;17.25;12.07;;;19.80;99.90;;;;;;4592838;19;20347;-71
2023/10/06 08:19:20;;;;;;;15.93;12.18;;;19.90;99.90;;;;;;4589994;19;20078;-71
2023/10/06 08:21:20;;;;;;;20.40;17.52;;;19.90;99.90;;;;;;4590481;19;20403;-71
2023/10/06 08:23:16;;;;;;;19.33;16.50;;;19.90;99.90;;;;;;4592096;19;20418;-71
2023/10/06 08:24:51;;;;;;;22.40;18.52;;;19.90;99.90;;;;;;4591978;19;20008;-71
2023/10/06 08:26:26;;;;;;;21.80;17.25;;;19.90;99.90;;;;;;4592713;19;20301;-70
2023/10/06 08:28:04;;;;;;;22.63;18.05;;;19.90;99.90;;;;;;4593021;19;20006;-71
2023/10/06 08:29:39;;;;;;;23.52;17.50;;;19.90;99.90;;;;;;4593073;19;20006;-70
2023/10/06 08:31:16;;;;;;;19.30;15.60;;;19.90;99.90;;;;;;4592721;19;20002;-71
2023/10/06 08:32:53;;;;;;;22.55;16.88;;;19.90;99.90;;;;;;4591725;19;20006;-70
2023/10/06 08:34:29;;;;;;;18.08;13.05;;;19.90;99.90;;;;;;4591583;19;20002;-71
2023/10/06 08:36:08;;;;;;;20.25;13.35;;;19.90;99.90;;;;;;4592829;19;20033;-71
2023/10/06 08:37:44;;;;;;;18.70;13.82;;;19.90;99.90;;;;;;4591610;19;20100;-71
2023/10/06 08:39:20;;;;;;;16.17;12.77;;;19.90;99.90;;;;;;4590478;19;20072;-72
2023/10/06 08:41:01;;;;;;;13.23;10.32;;;19.90;99.90;;;;;;4592518;19;20031;-71
2023/10/06 08:42:37;;;;;;;13.30;10.05;;;19.90;99.90;;;;;;4591735;19;20327;-70
2023/10/06 08:44:12;;;;;;;14.27;11.40;;;19.90;99.90;;;;;;4591593;19;20106;-72
2023/10/06 08:45:47;;;;;;;12.75;9.20;;;19.80;99.90;;;;;;4592367;19;20021;-72
2023/10/06 08:47:23;;;;;;;13.02;8.30;;;19.80;99.90;;;;;;4592745;19;20006;-71
2023/10/06 08:48:59;;;;;;;11.32;8.55;;;19.80;99.90;;;;;;4590544;19;20002;-71
2023/10/06 08:50:33;;;;;;;10.90;7.05;;;19.80;99.90;;;;;;4591507;19;20006;-71
2023/10/06 08:52:12;;;;;;;11.57;8.35;;;19.80;99.90;;;;;;4591442;19;20006;-71
2023/10/06 08:53:46;;;;;;;11.27;7.70;;;19.80;99.90;;;;;;4592881;19;20006;-71
2023/10/06 08:55:25;;;;;;;9.50;7.03;;;19.80;99.90;;;;;;4592792;19;19998;-71
2023/10/06 08:57:01;;;;;;;9.13;7.05;;;19.80;99.90;;;;;;4592501;19;20313;-71
2023/10/06 08:58:36;;;;;;;11.38;7.35;;;19.80;99.90;;;;;;4590829;19;20038;-71
2023/10/06 09:00:10;;;;;;;10.68;7.30;;;19.80;99.90;;;;;;4592328;19;20007;-70
2023/10/06 09:01:46;;;;;;;10.48;7.85;;;19.80;99.90;;;;;;4592375;19;20110;-71
2023/10/06 09:03:21;;;;;;;10.77;8.23;;;19.80;99.90;;;;;;4590898;19;19999;-71
2023/10/06 09:04:56;;;;;;;8.75;6.88;;;19.80;99.90;;;;;;4591288;19;20010;-71
2023/10/06 09:06:32;;;;;;;8.00;6.57;;;19.80;99.90;;;;;;4590987;19;20453;-71
2023/10/06 09:08:14;;;;;;;8.40;6.45;;;19.80;99.90;;;;;;4590806;19;20088;-71
2023/10/06 09:09:49;;;;;;;9.52;6.57;;;19.80;99.90;;;;;;4592360;19;20314;-72
2023/10/06 09:11:45;;;;;;;10.65;6.55;;;19.80;99.90;;;;;;4591952;19;20028;-71
2023/10/06 09:13:21;;;;;;;9.27;6.63;;;19.80;99.90;;;;;;4592533;19;20437;-70
2023/10/06 09:14:56;;;;;;;9.88;7.15;;;19.80;99.90;;;;;;4590859;19;20010;-71
2023/10/06 09:16:48;;;;;;;8.73;6.63;;;19.80;99.90;;;;;;4592061;19;20310;-71
2023/10/06 09:18:29;;;;;;;9.32;6.35;;;19.80;99.90;;;;;;4590507;19;20007;-69